EGNO METAR and TAF | Updated Today

EGNO METAR

Warton Aerodrome

Warton Aerodrome (EGNO) hasn't published a METAR.
We found the following current weather conditions for Freckleton from other sources.

Warton Aerodrome (EGNO) METAR

  • Weather conditions right now at EGNO:
  • Present conditions: Clear
  • Clouds: Clear sky
  • Cloud cover: 0%
  • Wind: 151 at 15kts
  • Temperature: 11.4 celsius
  • Feels like: 10.6 celsius
  • Pressure: 1004mb
  • Humidity: 75%


Useful to know...

EGNO TAF

Warton Aerodrome

TAF EGNO 241400Z 2415/2418 12008KT 9999 FEW030 TEMPO 2415/2418 7000 SHRA PROB30 TEMPO 2415/2418 4000 +SHRA BKN014
Observation time: 35:25 hr. ago
Need help? Read our tutorial on how to read TAFs or read the parsed version below.

Parsed version of TAF for Warton Aerodrome (EGNO)

  • From 24 June at 15:00 UTC, to day 24 of the month at 18:00 UTC
  • Clouds: A few at 914 meters
  • Visibility: Greater than 10 km
  • Wind: 120 degrees at 8
  • Expected to arise temporarily, from 24 June at 15:00 UTC, to day 24 of the month at 18:00 UTC
  • Visibility: 7000 meters
  • Other: Showers of rain
  • Expected to arise temporarily, from 24 June at 15:00 UTC, to day 24 of the month at 18:00 UTC
    Probability of 30%
  • Clouds: Broken sky at 427 meters
  • Visibility: 4000 meters
  • Other: Strong showers of rain